sensor_id;sensor_type;location;lat;lon;timestamp;pressure;altitude;pressure_sealevel;temperature;humidity
23241;BME280;11789;53.482;9.862;2023-03-01T00:03:28;103288.78;;;-1.57;89.17
23241;BME280;11789;53.482;9.862;2023-03-01T00:05:54;103284.00;;;-1.44;87.79
23241;BME280;11789;53.482;9.862;2023-03-01T00:08:19;103292.00;;;-1.39;87.94
23241;BME280;11789;53.482;9.862;2023-03-01T00:10:44;103294.06;;;-1.35;86.61
23241;BME280;11789;53.482;9.862;2023-03-01T00:13:11;103293.12;;;-1.46;86.52
23241;BME280;11789;53.482;9.862;2023-03-01T00:15:40;103290.78;;;-1.53;86.68
23241;BME280;11789;53.482;9.862;2023-03-01T00:18:07;103291.97;;;-1.49;86.62
23241;BME280;11789;53.482;9.862;2023-03-01T00:20:33;103293.12;;;-1.46;88.89
23241;BME280;11789;53.482;9.862;2023-03-01T00:22:59;103289.53;;;-1.48;88.68
23241;BME280;11789;53.482;9.862;2023-03-01T00:25:24;103295.03;;;-1.43;87.05
23241;BME280;11789;53.482;9.862;2023-03-01T00:27:50;103283.91;;;-1.35;85.96
23241;BME280;11789;53.482;9.862;2023-03-01T00:30:16;103279.22;;;-1.31;84.94
23241;BME280;11789;53.482;9.862;2023-03-01T00:32:41;103282.41;;;-1.23;84.30
23241;BME280;11789;53.482;9.862;2023-03-01T00:35:07;103285.81;;;-1.22;83.72
23241;BME280;11789;53.482;9.862;2023-03-01T00:37:32;103288.84;;;-1.37;85.50
23241;BME280;11789;53.482;9.862;2023-03-01T00:39:58;103282.34;;;-1.43;85.47
23241;BME280;11789;53.482;9.862;2023-03-01T00:42:23;103278.63;;;-1.57;86.53
23241;BME280;11789;53.482;9.862;2023-03-01T00:44:49;103276.09;;;-1.57;87.20
23241;BME280;11789;53.482;9.862;2023-03-01T00:47:14;103291.84;;;-1.51;86.32
23241;BME280;11789;53.482;9.862;2023-03-01T00:49:40;103280.47;;;-1.65;86.57
23241;BME280;11789;53.482;9.862;2023-03-01T00:52:07;103282.09;;;-1.75;87.56
23241;BME280;11789;53.482;9.862;2023-03-01T00:54:32;103288.56;;;-1.69;87.39
23241;BME280;11789;53.482;9.862;2023-03-01T00:56:58;103275.44;;;-1.84;87.66
23241;BME280;11789;53.482;9.862;2023-03-01T00:59:23;103280.31;;;-1.95;88.05
23241;BME280;11789;53.482;9.862;2023-03-01T01:01:48;103275.06;;;-2.07;88.64
23241;BME280;11789;53.482;9.862;2023-03-01T01:04:14;103273.66;;;-2.03;90.18
23241;BME280;11789;53.482;9.862;2023-03-01T01:06:45;103277.72;;;-2.05;90.21
23241;BME280;11789;53.482;9.862;2023-03-01T01:09:15;103274.03;;;-2.09;90.90
23241;BME280;11789;53.482;9.862;2023-03-01T01:11:48;103278.81;;;-1.93;90.18
23241;BME280;11789;53.482;9.862;2023-03-01T01:14:14;103275.25;;;-1.76;89.05
23241;BME280;11789;53.482;9.862;2023-03-01T01:16:40;103275.47;;;-1.73;87.81
23241;BME280;11789;53.482;9.862;2023-03-01T01:19:05;103272.12;;;-1.83;88.70
23241;BME280;11789;53.482;9.862;2023-03-01T01:21:31;103262.47;;;-1.97;89.36
23241;BME280;11789;53.482;9.862;2023-03-01T01:23:57;103257.56;;;-2.04;90.68
23241;BME280;11789;53.482;9.862;2023-03-01T01:26:25;103255.25;;;-2.11;91.18
23241;BME280;11789;53.482;9.862;2023-03-01T01:28:51;103256.50;;;-2.16;91.79
23241;BME280;11789;53.482;9.862;2023-03-01T01:31:18;103255.94;;;-2.03;91.44
23241;BME280;11789;53.482;9.862;2023-03-01T01:33:44;103254.63;;;-1.90;90.22
23241;BME280;11789;53.482;9.862;2023-03-01T01:36:11;103252.84;;;-1.91;90.52
23241;BME280;11789;53.482;9.862;2023-03-01T01:38:37;103252.84;;;-1.91;89.77
23241;BME280;11789;53.482;9.862;2023-03-01T01:41:05;103249.47;;;-1.81;88.79
23241;BME280;11789;53.482;9.862;2023-03-01T01:43:36;103251.72;;;-1.84;89.77
23241;BME280;11789;53.482;9.862;2023-03-01T01:46:30;103248.31;;;-1.85;90.06
23241;BME280;11789;53.482;9.862;2023-03-01T01:49:04;103248.06;;;-1.77;88.50
23241;BME280;11789;53.482;9.862;2023-03-01T01:51:42;103234.06;;;-1.93;88.51
23241;BME280;11789;53.482;9.862;2023-03-01T01:54:21;103234.34;;;-1.90;89.32
23241;BME280;11789;53.482;9.862;2023-03-01T01:57:11;103232.56;;;-1.91;90.90
23241;BME280;11789;53.482;9.862;2023-03-01T01:59:38;103230.22;;;-1.98;91.27
23241;BME280;11789;53.482;9.862;2023-03-01T02:02:05;103220.44;;;-2.03;91.26
23241;BME280;11789;53.482;9.862;2023-03-01T02:04:32;103225.78;;;-2.00;90.68
23241;BME280;11789;53.482;9.862;2023-03-01T02:07:03;103219.44;;;-2.05;91.08
23241;BME280;11789;53.482;9.862;2023-03-01T02:09:32;103211.91;;;-2.14;91.51
23241;BME280;11789;53.482;9.862;2023-03-01T02:12:02;103227.25;;;-2.13;92.93
23241;BME280;11789;53.482;9.862;2023-03-01T02:14:29;103218.44;;;-2.07;92.54
23241;BME280;11789;53.482;9.862;2023-03-01T02:16:54;103210.94;;;-2.06;92.34
23241;BME280;11789;53.482;9.862;2023-03-01T02:22:30;103214.97;;;-2.08;92.59
23241;BME280;11789;53.482;9.862;2023-03-01T02:30:35;103210.22;;;-1.95;89.17
23241;BME280;11789;53.482;9.862;2023-03-01T02:33:03;103214.53;;;-1.94;88.46
23241;BME280;11789;53.482;9.862;2023-03-01T02:35:33;103215.72;;;-2.09;89.75
23241;BME280;11789;53.482;9.862;2023-03-01T02:38:01;103210.34;;;-2.22;91.09
23241;BME280;11789;53.482;9.862;2023-03-01T02:40:28;103211.38;;;-2.20;92.26
23241;BME280;11789;53.482;9.862;2023-03-01T02:42:57;103212.87;;;-2.22;92.54
23241;BME280;11789;53.482;9.862;2023-03-01T02:45:23;103210.00;;;-2.36;93.14
23241;BME280;11789;53.482;9.862;2023-03-01T02:47:49;103207.34;;;-2.37;93.92
23241;BME280;11789;53.482;9.862;2023-03-01T02:50:26;103210.53;;;-2.29;92.56
23241;BME280;11789;53.482;9.862;2023-03-01T02:55:31;103215.28;;;-2.43;93.68
23241;BME280;11789;53.482;9.862;2023-03-01T02:57:56;103215.63;;;-2.29;92.63
23241;BME280;11789;53.482;9.862;2023-03-01T03:00:34;103205.87;;;-2.25;93.60
23241;BME280;11789;53.482;9.862;2023-03-01T03:03:06;103210.75;;;-2.18;92.76
23241;BME280;11789;53.482;9.862;2023-03-01T03:05:32;103214.09;;;-2.09;91.55
23241;BME280;11789;53.482;9.862;2023-03-01T03:08:00;103205.81;;;-1.97;90.96
23241;BME280;11789;53.482;9.862;2023-03-01T03:10:31;103203.25;;;-1.97;90.32
23241;BME280;11789;53.482;9.862;2023-03-01T03:13:16;103205.53;;;-2.00;91.97
23241;BME280;11789;53.482;9.862;2023-03-01T03:15:43;103201.62;;;-1.97;92.12
23241;BME280;11789;53.482;9.862;2023-03-01T03:18:11;103203.25;;;-1.97;93.68
23241;BME280;11789;53.482;9.862;2023-03-01T03:20:39;103202.16;;;-2.10;94.17
23241;BME280;11789;53.482;9.862;2023-03-01T03:23:05;103200.28;;;-2.12;94.49
23241;BME280;11789;53.482;9.862;2023-03-01T03:25:30;103197.78;;;-2.02;93.63
23241;BME280;11789;53.482;9.862;2023-03-01T03:27:56;103195.38;;;-2.00;93.73
23241;BME280;11789;53.482;9.862;2023-03-01T03:30:26;103188.06;;;-1.97;94.92
23241;BME280;11789;53.482;9.862;2023-03-01T03:32:52;103188.94;;;-1.97;94.43
23241;BME280;11789;53.482;9.862;2023-03-01T03:35:29;103184.97;;;-2.03;94.80
23241;BME280;11789;53.482;9.862;2023-03-01T03:37:56;103189.44;;;-2.01;95.32
23241;BME280;11789;53.482;9.862;2023-03-01T03:40:36;103189.06;;;-1.95;95.38
23241;BME280;11789;53.482;9.862;2023-03-01T03:43:08;103188.72;;;-1.90;94.44
23241;BME280;11789;53.482;9.862;2023-03-01T03:45:34;103189.09;;;-1.85;93.00
23241;BME280;11789;53.482;9.862;2023-03-01T03:48:05;103180.75;;;-1.84;93.42
23241;BME280;11789;53.482;9.862;2023-03-01T03:50:32;103177.06;;;-1.77;92.68
23241;BME280;11789;53.482;9.862;2023-03-01T03:53:00;103181.41;;;-1.76;92.19
23241;BME280;11789;53.482;9.862;2023-03-01T03:55:26;103184.56;;;-1.79;92.72
23241;BME280;11789;53.482;9.862;2023-03-01T03:57:57;103182.44;;;-1.74;92.54
23241;BME280;11789;53.482;9.862;2023-03-01T04:00:24;103177.03;;;-1.88;92.61
23241;BME280;11789;53.482;9.862;2023-03-01T04:02:50;103175.63;;;-1.94;94.58
23241;BME280;11789;53.482;9.862;2023-03-01T04:05:17;103176.75;;;-2.01;95.09
23241;BME280;11789;53.482;9.862;2023-03-01T04:07:44;103171.87;;;-2.08;95.62
23241;BME280;11789;53.482;9.862;2023-03-01T04:10:12;103174.19;;;-2.11;95.96
23241;BME280;11789;53.482;9.862;2023-03-01T04:12:39;103170.66;;;-2.03;96.47
23241;BME280;11789;53.482;9.862;2023-03-01T04:15:06;103171.38;;;-1.85;96.02
23241;BME280;11789;53.482;9.862;2023-03-01T04:17:47;103166.94;;;-1.77;95.03
23241;BME280;11789;53.482;9.862;2023-03-01T04:20:15;103164.81;;;-1.63;94.01
23241;BME280;11789;53.482;9.862;2023-03-01T04:22:51;103166.50;;;-1.53;93.49
23241;BME280;11789;53.482;9.862;2023-03-01T04:25:17;103160.66;;;-1.62;93.91
23241;BME280;11789;53.482;9.862;2023-03-01T04:27:43;103160.12;;;-1.68;95.38
23241;BME280;11789;53.482;9.862;2023-03-01T04:30:09;103161.38;;;-1.73;96.16
23241;BME280;11789;53.482;9.862;2023-03-01T04:32:35;103159.34;;;-1.77;96.53
23241;BME280;11789;53.482;9.862;2023-03-01T04:35:00;103158.31;;;-1.79;96.93
23241;BME280;11789;53.482;9.862;2023-03-01T04:37:26;103159.00;;;-1.72;97.15
23241;BME280;11789;53.482;9.862;2023-03-01T04:39:52;103155.84;;;-1.59;96.66
23241;BME280;11789;53.482;9.862;2023-03-01T04:42:18;103161.69;;;-1.50;96.95
23241;BME280;11789;53.482;9.862;2023-03-01T04:44:44;103157.25;;;-1.42;96.12
23241;BME280;11789;53.482;9.862;2023-03-01T04:47:10;103154.63;;;-1.34;95.33
23241;BME280;11789;53.482;9.862;2023-03-01T04:49:36;103167.09;;;-1.26;95.01
23241;BME280;11789;53.482;9.862;2023-03-01T04:52:04;103158.22;;;-1.21;94.78
23241;BME280;11789;53.482;9.862;2023-03-01T04:54:31;103155.66;;;-1.21;94.64
23241;BME280;11789;53.482;9.862;2023-03-01T04:56:58;103151.09;;;-1.25;95.07
23241;BME280;11789;53.482;9.862;2023-03-01T04:59:24;103153.25;;;-1.20;94.90
23241;BME280;11789;53.482;9.862;2023-03-01T05:01:53;103154.38;;;-1.26;94.72
23241;BME280;11789;53.482;9.862;2023-03-01T05:04:23;103154.63;;;-1.34;95.17
23241;BME280;11789;53.482;9.862;2023-03-01T05:06:49;103144.97;;;-1.27;95.35
23241;BME280;11789;53.482;9.862;2023-03-01T05:09:15;103150.44;;;-1.23;95.34
23241;BME280;11789;53.482;9.862;2023-03-01T05:11:40;103151.09;;;-1.15;95.36
23241;BME280;11789;53.482;9.862;2023-03-01T05:14:07;103151.87;;;-1.06;94.93
23241;BME280;11789;53.482;9.862;2023-03-01T05:16:33;103150.22;;;-1.06;94.64
23241;BME280;11789;53.482;9.862;2023-03-01T05:18:59;103149.19;;;-1.08;94.78
23241;BME280;11789;53.482;9.862;2023-03-01T05:21:25;103146.78;;;-1.06;95.27
23241;BME280;11789;53.482;9.862;2023-03-01T05:23:51;103149.69;;;-1.01;95.95
23241;BME280;11789;53.482;9.862;2023-03-01T05:26:18;103147.28;;;-1.00;96.86
23241;BME280;11789;53.482;9.862;2023-03-01T05:28:44;103138.41;;;-0.95;96.49
23241;BME280;11789;53.482;9.862;2023-03-01T05:31:09;103147.12;;;-0.91;96.16
23241;BME280;11789;53.482;9.862;2023-03-01T05:33:39;103140.16;;;-0.94;96.56
23241;BME280;11789;53.482;9.862;2023-03-01T05:36:06;103136.97;;;-0.91;96.92
23241;BME280;11789;53.482;9.862;2023-03-01T05:38:33;103153.38;;;-0.88;96.42
23241;BME280;11789;53.482;9.862;2023-03-01T05:40:59;103149.56;;;-1.03;96.29
23241;BME280;11789;53.482;9.862;2023-03-01T05:43:24;103149.06;;;-1.09;97.12
23241;BME280;11789;53.482;9.862;2023-03-01T05:45:50;103148.78;;;-1.02;97.43
23241;BME280;11789;53.482;9.862;2023-03-01T05:48:15;103143.22;;;-0.98;97.54
23241;BME280;11789;53.482;9.862;2023-03-01T05:50:43;103146.91;;;-0.94;97.31
23241;BME280;11789;53.482;9.862;2023-03-01T05:53:14;103143.72;;;-1.02;97.95
23241;BME280;11789;53.482;9.862;2023-03-01T05:55:41;103136.38;;;-0.99;98.15
23241;BME280;11789;53.482;9.862;2023-03-01T05:58:16;103140.16;;;-0.94;99.17
23241;BME280;11789;53.482;9.862;2023-03-01T06:00:44;103132.16;;;-0.88;99.18
23241;BME280;11789;53.482;9.862;2023-03-01T06:03:11;103132.28;;;-0.87;99.21
23241;BME280;11789;53.482;9.862;2023-03-01T06:05:37;103133.06;;;-0.88;98.86
23241;BME280;11789;53.482;9.862;2023-03-01T06:08:04;103141.94;;;-0.93;98.99
23241;BME280;11789;53.482;9.862;2023-03-01T06:10:29;103134.59;;;-0.90;99.23
23241;BME280;11789;53.482;9.862;2023-03-01T06:12:55;103137.75;;;-0.82;99.07
23241;BME280;11789;53.482;9.862;2023-03-01T06:15:21;103135.84;;;-0.85;98.67
23241;BME280;11789;53.482;9.862;2023-03-01T06:17:46;103131.78;;;-0.83;99.22
23241;BME280;11789;53.482;9.862;2023-03-01T06:20:20;103133.53;;;-0.82;99.51
23241;BME280;11789;53.482;9.862;2023-03-01T06:22:46;103129.00;;;-0.75;99.23
23241;BME280;11789;53.482;9.862;2023-03-01T06:25:14;103122.75;;;-0.79;99.17
23241;BME280;11789;53.482;9.862;2023-03-01T06:27:40;103131.75;;;-0.72;99.06
23241;BME280;11789;53.482;9.862;2023-03-01T06:30:07;103124.41;;;-0.69;98.86
23241;BME280;11789;53.482;9.862;2023-03-01T06:32:33;103127.94;;;-0.67;98.55
23241;BME280;11789;53.482;9.862;2023-03-01T06:34:59;103124.41;;;-0.69;98.39
23241;BME280;11789;53.482;9.862;2023-03-01T06:37:27;103119.31;;;-0.69;98.90
23241;BME280;11789;53.482;9.862;2023-03-01T06:39:52;103111.94;;;-0.66;99.21
23241;BME280;11789;53.482;9.862;2023-03-01T06:42:18;103119.53;;;-0.66;99.26
23241;BME280;11789;53.482;9.862;2023-03-01T06:44:44;103129.47;;;-0.69;99.16
23241;BME280;11789;53.482;9.862;2023-03-01T06:47:09;103126.44;;;-0.75;99.44
23241;BME280;11789;53.482;9.862;2023-03-01T06:49:34;103123.53;;;-0.70;99.43
23241;BME280;11789;53.482;9.862;2023-03-01T06:52:00;103125.88;;;-0.61;99.50
23241;BME280;11789;53.482;9.862;2023-03-01T06:54:25;103122.22;;;-0.55;99.43
23241;BME280;11789;53.482;9.862;2023-03-01T06:56:52;103123.69;;;-0.46;99.04
23241;BME280;11789;53.482;9.862;2023-03-01T06:59:18;103130.59;;;-0.45;98.80
23241;BME280;11789;53.482;9.862;2023-03-01T07:01:43;103131.22;;;-0.48;98.96
23241;BME280;11789;53.482;9.862;2023-03-01T07:04:10;103133.62;;;-0.49;99.19
23241;BME280;11789;53.482;9.862;2023-03-01T07:06:35;103132.59;;;-0.52;99.37
23241;BME280;11789;53.482;9.862;2023-03-01T07:09:01;103131.22;;;-0.48;99.68
23241;BME280;11789;53.482;9.862;2023-03-01T07:11:26;103134.13;;;-0.43;99.70
23241;BME280;11789;53.482;9.862;2023-03-01T07:13:52;103144.53;;;-0.40;99.41
23241;BME280;11789;53.482;9.862;2023-03-01T07:16:17;103140.09;;;-0.43;99.35
23241;BME280;11789;53.482;9.862;2023-03-01T07:18:44;103131.69;;;-0.42;99.49
23241;BME280;11789;53.482;9.862;2023-03-01T07:21:12;103135.00;;;-0.43;99.32
23241;BME280;11789;53.482;9.862;2023-03-01T07:23:38;103137.53;;;-0.43;99.39
23241;BME280;11789;53.482;9.862;2023-03-01T07:26:04;103126.50;;;-0.43;99.57
23241;BME280;11789;53.482;9.862;2023-03-01T07:28:29;103133.47;;;-0.41;99.50
23241;BME280;11789;53.482;9.862;2023-03-01T07:31:00;103124.84;;;-0.43;99.71
23241;BME280;11789;53.482;9.862;2023-03-01T07:33:26;103117.19;;;-0.33;99.85
23241;BME280;11789;53.482;9.862;2023-03-01T07:35:59;103116.66;;;-0.29;99.80
23241;BME280;11789;53.482;9.862;2023-03-01T07:38:26;103122.22;;;-0.22;99.61
23241;BME280;11789;53.482;9.862;2023-03-01T07:40:53;103116.38;;;-0.21;99.60
23241;BME280;11789;53.482;9.862;2023-03-01T07:43:19;103112.69;;;-0.15;99.37
23241;BME280;11789;53.482;9.862;2023-03-01T07:45:46;103121.56;;;-0.10;99.14
23241;BME280;11789;53.482;9.862;2023-03-01T07:48:11;103116.81;;;-0.05;98.48
23241;BME280;11789;53.482;9.862;2023-03-01T07:50:36;103121.37;;;-0.01;97.96
23241;BME280;11789;53.482;9.862;2023-03-01T07:53:02;103122.25;;;-0.01;97.66
23241;BME280;11789;53.482;9.862;2023-03-01T07:55:27;103122.50;;;0.03;97.56
23241;BME280;11789;53.482;9.862;2023-03-01T07:57:53;103124.53;;;0.07;97.23
23241;BME280;11789;53.482;9.862;2023-03-01T08:00:19;103133.50;;;0.13;96.60
23241;BME280;11789;53.482;9.862;2023-03-01T08:02:44;103138.31;;;0.20;96.12
23241;BME280;11789;53.482;9.862;2023-03-01T08:05:10;103138.13;;;0.29;95.78
23241;BME280;11789;53.482;9.862;2023-03-01T08:07:35;103135.94;;;0.34;95.33
23241;BME280;11789;53.482;9.862;2023-03-01T08:10:01;103141.50;;;0.40;94.52
23241;BME280;11789;53.482;9.862;2023-03-01T08:12:26;103139.31;;;0.44;94.02
23241;BME280;11789;53.482;9.862;2023-03-01T08:14:53;103138.66;;;0.47;93.52
23241;BME280;11789;53.482;9.862;2023-03-01T08:17:19;103132.28;;;0.52;91.89
23241;BME280;11789;53.482;9.862;2023-03-01T08:19:44;103132.50;;;0.55;90.32
23241;BME280;11789;53.482;9.862;2023-03-01T08:22:10;103138.81;;;0.60;89.11
23241;BME280;11789;53.482;9.862;2023-03-01T08:24:35;103129.75;;;0.64;87.38
23241;BME280;11789;53.482;9.862;2023-03-01T08:27:01;103123.47;;;0.70;87.41
23241;BME280;11789;53.482;9.862;2023-03-01T08:29:30;103131.59;;;0.76;87.05
23241;BME280;11789;53.482;9.862;2023-03-01T08:31:56;103128.97;;;0.87;86.35
23241;BME280;11789;53.482;9.862;2023-03-01T08:34:40;103135.19;;;1.02;85.48
23241;BME280;11789;53.482;9.862;2023-03-01T08:37:05;103125.56;;;1.21;83.75
23241;BME280;11789;53.482;9.862;2023-03-01T08:39:31;103125.25;;;1.28;82.54
23241;BME280;11789;53.482;9.862;2023-03-01T08:41:57;103122.03;;;1.31;82.53
23241;BME280;11789;53.482;9.862;2023-03-01T08:44:22;103115.06;;;1.40;83.46
23241;BME280;11789;53.482;9.862;2023-03-01T08:46:48;103112.41;;;1.39;81.78
23241;BME280;11789;53.482;9.862;2023-03-01T08:49:19;103117.72;;;1.42;80.89
23241;BME280;11789;53.482;9.862;2023-03-01T08:51:46;103119.28;;;1.40;81.26
23241;BME280;11789;53.482;9.862;2023-03-01T08:54:14;103119.62;;;1.44;81.29
23241;BME280;11789;53.482;9.862;2023-03-01T08:56:40;103125.94;;;1.49;81.24
23241;BME280;11789;53.482;9.862;2023-03-01T08:59:06;103112.97;;;1.58;80.93
23241;BME280;11789;53.482;9.862;2023-03-01T09:01:32;103117.84;;;1.55;80.99
23241;BME280;11789;53.482;9.862;2023-03-01T09:03:57;103126.69;;;1.60;80.36
23241;BME280;11789;53.482;9.862;2023-03-01T09:06:22;103134.00;;;1.67;79.75
23241;BME280;11789;53.482;9.862;2023-03-01T09:08:49;103121.72;;;1.73;78.95
23241;BME280;11789;53.482;9.862;2023-03-01T09:11:18;103129.44;;;1.87;78.83
23241;BME280;11789;53.482;9.862;2023-03-01T09:13:45;103120.63;;;2.43;78.00
23241;BME280;11789;53.482;9.862;2023-03-01T09:16:13;103107.00;;;3.19;75.08
23241;BME280;11789;53.482;9.862;2023-03-01T09:18:38;103109.50;;;2.93;75.32
23241;BME280;11789;53.482;9.862;2023-03-01T09:21:06;103108.53;;;2.91;75.36
23241;BME280;11789;53.482;9.862;2023-03-01T09:23:36;103114.03;;;2.97;75.75
23241;BME280;11789;53.482;9.862;2023-03-01T09:26:05;103116.16;;;3.42;75.39
23241;BME280;11789;53.482;9.862;2023-03-01T09:28:31;103116.75;;;3.51;75.31
23241;BME280;11789;53.482;9.862;2023-03-01T09:31:00;103112.66;;;3.95;74.98
23241;BME280;11789;53.482;9.862;2023-03-01T09:33:28;103106.88;;;4.25;74.32
23241;BME280;11789;53.482;9.862;2023-03-01T09:36:03;103105.34;;;4.42;73.92
23241;BME280;11789;53.482;9.862;2023-03-01T09:38:29;103100.78;;;4.66;73.65
23241;BME280;11789;53.482;9.862;2023-03-01T09:40:55;103097.72;;;4.72;72.87
23241;BME280;11789;53.482;9.862;2023-03-01T09:43:44;103094.81;;;4.95;72.43
23241;BME280;11789;53.482;9.862;2023-03-01T09:46:13;103093.84;;;5.08;72.12
23241;BME280;11789;53.482;9.862;2023-03-01T09:48:46;103090.53;;;5.40;71.24
23241;BME280;11789;53.482;9.862;2023-03-01T09:51:19;103102.16;;;5.64;70.64
23241;BME280;11789;53.482;9.862;2023-03-01T09:53:48;103094.69;;;5.53;70.15
23241;BME280;11789;53.482;9.862;2023-03-01T09:56:20;103096.72;;;5.43;70.46
23241;BME280;11789;53.482;9.862;2023-03-01T10:01:25;103101.16;;;5.31;71.57
23241;BME280;11789;53.482;9.862;2023-03-01T10:04:12;103106.66;;;5.37;72.09
23241;BME280;11789;53.482;9.862;2023-03-01T10:07:05;103100.81;;;5.25;72.73
23241;BME280;11789;53.482;9.862;2023-03-01T10:09:34;103105.16;;;4.97;74.54
23241;BME280;11789;53.482;9.862;2023-03-01T10:12:02;103101.53;;;4.78;75.81
23241;BME280;11789;53.482;9.862;2023-03-01T10:14:33;103104.41;;;4.69;76.91
23241;BME280;11789;53.482;9.862;2023-03-01T10:17:25;103095.31;;;4.60;77.62
23241;BME280;11789;53.482;9.862;2023-03-01T10:19:52;103096.59;;;4.38;79.59
23241;BME280;11789;53.482;9.862;2023-03-01T10:22:27;103092.78;;;4.32;80.61
23241;BME280;11789;53.482;9.862;2023-03-01T10:25:02;103097.78;;;4.30;81.16
23241;BME280;11789;53.482;9.862;2023-03-01T10:27:41;103091.78;;;4.30;82.33
23241;BME280;11789;53.482;9.862;2023-03-01T10:30:16;103102.31;;;4.34;82.51
23241;BME280;11789;53.482;9.862;2023-03-01T10:32:46;103104.06;;;4.35;82.42
23241;BME280;11789;53.482;9.862;2023-03-01T10:35:26;103102.69;;;4.40;82.62
23241;BME280;11789;53.482;9.862;2023-03-01T10:38:06;103102.31;;;4.34;82.51
23241;BME280;11789;53.482;9.862;2023-03-01T10:40:33;103095.09;;;4.42;82.49
23241;BME280;11789;53.482;9.862;2023-03-01T10:43:03;103098.63;;;4.44;82.10
23241;BME280;11789;53.482;9.862;2023-03-01T10:48:17;103092.06;;;4.34;82.79
23241;BME280;11789;53.482;9.862;2023-03-01T10:50:45;103090.66;;;4.39;83.54
23241;BME280;11789;53.482;9.862;2023-03-01T10:53:34;103089.09;;;4.41;83.64
23241;BME280;11789;53.482;9.862;2023-03-01T10:58:27;103084.09;;;4.58;82.58
23241;BME280;11789;53.482;9.862;2023-03-01T11:01:02;103084.00;;;4.71;82.12
23241;BME280;11789;53.482;9.862;2023-03-01T11:03:38;103086.56;;;4.71;82.23
23241;BME280;11789;53.482;9.862;2023-03-01T11:08:44;103091.19;;;4.77;83.60
23241;BME280;11789;53.482;9.862;2023-03-01T11:14:00;103084.81;;;4.70;84.06
23241;BME280;11789;53.482;9.862;2023-03-01T11:16:31;103082.09;;;4.67;84.41
23241;BME280;11789;53.482;9.862;2023-03-01T11:21:42;103074.19;;;4.49;85.10
23241;BME280;11789;53.482;9.862;2023-03-01T11:24:12;103073.09;;;4.46;85.52
23241;BME280;11789;53.482;9.862;2023-03-01T11:26:43;103077.87;;;4.39;85.62
23241;BME280;11789;53.482;9.862;2023-03-01T11:29:29;103061.63;;;4.39;85.81
23241;BME280;11789;53.482;9.862;2023-03-01T11:32:01;103067.97;;;4.46;85.89
23241;BME280;11789;53.482;9.862;2023-03-01T11:34:38;103062.09;;;4.47;86.35
23241;BME280;11789;53.482;9.862;2023-03-01T11:37:16;103064.53;;;4.45;86.26
23241;BME280;11789;53.482;9.862;2023-03-01T11:39:54;103058.38;;;4.41;86.17
23241;BME280;11789;53.482;9.862;2023-03-01T11:45:11;103056.41;;;4.37;86.23
23241;BME280;11789;53.482;9.862;2023-03-01T11:47:59;103056.50;;;4.39;86.32
23241;BME280;11789;53.482;9.862;2023-03-01T11:50:50;103056.41;;;4.37;86.16
23241;BME280;11789;53.482;9.862;2023-03-01T11:53:50;103061.91;;;4.43;86.18
23241;BME280;11789;53.482;9.862;2023-03-01T11:56:30;103060.28;;;4.46;85.97
23241;BME280;11789;53.482;9.862;2023-03-01T12:01:39;103053.59;;;4.48;86.16
23241;BME280;11789;53.482;9.862;2023-03-01T12:06:57;103046.34;;;4.55;86.08
23241;BME280;11789;53.482;9.862;2023-03-01T12:09:32;103050.78;;;4.58;86.41
23241;BME280;11789;53.482;9.862;2023-03-01T12:15:06;103044.78;;;4.57;86.78
23241;BME280;11789;53.482;9.862;2023-03-01T12:17:55;103037.53;;;4.65;87.43
23241;BME280;11789;53.482;9.862;2023-03-01T12:26:29;103025.25;;;4.74;89.33
23241;BME280;11789;53.482;9.862;2023-03-01T12:29:12;103014.94;;;4.73;90.49
23241;BME280;11789;53.482;9.862;2023-03-01T12:35:11;103006.44;;;4.74;91.76
23241;BME280;11789;53.482;9.862;2023-03-01T12:38:00;103006.53;;;4.75;92.42
23241;BME280;11789;53.482;9.862;2023-03-01T12:49:21;102991.69;;;4.84;92.78
23241;BME280;11789;53.482;9.862;2023-03-01T12:52:04;102990.47;;;4.78;93.40
23241;BME280;11789;53.482;9.862;2023-03-01T12:54:36;102987.03;;;4.77;94.49
23241;BME280;11789;53.482;9.862;2023-03-01T12:57:09;102984.59;;;4.80;95.06
23241;BME280;11789;53.482;9.862;2023-03-01T13:05:10;102979.75;;;4.85;94.56
23241;BME280;11789;53.482;9.862;2023-03-01T13:08:01;102977.44;;;4.89;93.58
23241;BME280;11789;53.482;9.862;2023-03-01T13:10:34;102974.25;;;4.93;93.76
23241;BME280;11789;53.482;9.862;2023-03-01T13:15:37;102972.50;;;4.92;93.25
23241;BME280;11789;53.482;9.862;2023-03-01T13:20:33;102974.59;;;5.00;93.59
23241;BME280;11789;53.482;9.862;2023-03-01T13:26:14;102959.94;;;4.97;93.79
23241;BME280;11789;53.482;9.862;2023-03-01T13:28:50;102968.25;;;4.93;94.58
23241;BME280;11789;53.482;9.862;2023-03-01T13:33:46;102962.59;;;4.99;96.06
23241;BME280;11789;53.482;9.862;2023-03-01T13:44:21;102956.47;;;4.97;96.64
23241;BME280;11789;53.482;9.862;2023-03-01T13:46:53;102952.16;;;4.95;96.77
23241;BME280;11789;53.482;9.862;2023-03-01T13:49:24;102958.41;;;5.01;97.14
23241;BME280;11789;53.482;9.862;2023-03-01T13:51:51;102944.03;;;5.03;97.71
23241;BME280;11789;53.482;9.862;2023-03-01T13:54:26;102945.59;;;5.01;97.55
23241;BME280;11789;53.482;9.862;2023-03-01T13:56:55;102944.72;;;5.00;97.50
23241;BME280;11789;53.482;9.862;2023-03-01T13:59:22;102939.59;;;5.00;97.34
23241;BME280;11789;53.482;9.862;2023-03-01T14:01:56;102940.56;;;5.02;97.55
23241;BME280;11789;53.482;9.862;2023-03-01T14:04:32;102941.19;;;4.98;97.31
23241;BME280;11789;53.482;9.862;2023-03-01T14:07:22;102935.19;;;4.98;97.66
23241;BME280;11789;53.482;9.862;2023-03-01T14:09:55;102930.94;;;4.98;97.69
23241;BME280;11789;53.482;9.862;2023-03-01T14:15:31;102919.00;;;4.99;97.84
23241;BME280;11789;53.482;9.862;2023-03-01T14:20:43;102921.91;;;5.05;97.94
23241;BME280;11789;53.482;9.862;2023-03-01T14:23:13;102916.84;;;5.06;97.91
23241;BME280;11789;53.482;9.862;2023-03-01T14:26:07;102910.16;;;5.08;97.90
23241;BME280;11789;53.482;9.862;2023-03-01T14:28:36;102914.41;;;5.08;97.47
23241;BME280;11789;53.482;9.862;2023-03-01T14:31:44;102903.34;;;5.09;96.77
23241;BME280;11789;53.482;9.862;2023-03-01T14:34:22;102904.41;;;5.12;96.37
23241;BME280;11789;53.482;9.862;2023-03-01T14:36:48;102906.53;;;5.21;95.99